Clifford A. Barnes — WRN5495 — position and weather

sailwx.info

Track history (hours):
 
Tides and Currents Weather Stations Pressure Air Temp Water Temp Dewpoint Dewpoint Depression Visibility Wind Speed Wind Dir Waves Ship Positions

Oceanographic research ship Clifford A. Barnes (USA)

Ship's website: http://www.ocean.washington.edu/vessels/CAB/cab.html

Detailed information on ship capabilities available from University of Delaware's Ocean Information Center.

Owner: UNIVERSITY OF WASHINGTON, SEATTLE, WA. More information available from US FCC via Universal Licensing System.

Last reported at 2017-Nov-17 00:16 UTC. Time now 2017-Dec-18 09:16 UTC.
Position N 47°39' W 122°19'.
Warning: this ship's position is 31 days out of date.

Length 22 m.

Type: Other ship. MMSI: 366918910.

Date/timePositionNaut miles runAvg speedWind from/ knotsBaromVisibWave heightAir tempDewpointWater temp
2017-Nov-17 00:16N 47°39' W 122°19'3 6.4
2017-Nov-16 23:45N 47°40' W 122°14'1 2.3
2017-Nov-16 23:26N 47°41' W 122°14'1 1.3
2017-Nov-16 22:59N 47°42' W 122°14'0 0.3
2017-Nov-16 22:21N 47°42' W 122°14'0 0.6
2017-Nov-16 22:00N 47°42' W 122°13'1 1.5
2017-Nov-16 21:30N 47°41' W 122°14'3 6.1
2017-Nov-16 20:59N 47°39' W 122°17'1 1.9
2017-Nov-16 20:30N 47°39' W 122°19'2 3.0
2017-Nov-16 20:01N 47°39' W 122°17'0 0.1
2017-Nov-16 19:31N 47°39' W 122°17'1 1.9
2017-Nov-16 19:00N 47°39' W 122°18'1 1.0
2017-Nov-16 18:28N 47°39' W 122°19'0 0.0
2017-Nov-16 17:58N 47°39' W 122°19'0 0.0
2017-Nov-16 16:10N 47°39' W 122°19'0 0.0
2017-Nov-16 15:58N 47°39' W 122°19'0 0.0
2017-Nov-16 15:19N 47°39' W 122°19'0 0.0
2017-Nov-16 14:58N 47°39' W 122°19'0 0.0
2017-Nov-16 00:08N 47°39' W 122°19'0 2.7
2017-Nov-16 00:00N 47°39' W 122°18'3 6.0
2017-Nov-15 23:31N 47°40' W 122°14'3 6.4
2017-Nov-15 23:00N 47°43' W 122°16'1 1.0
2017-Nov-15 22:30N 47°43' W 122°16'0 0.9
2017-Nov-15 22:00N 47°42' W 122°15'0 0.6
2017-Nov-15 21:30N 47°42' W 122°15'2 4.6
2017-Nov-15 21:00N 47°40' W 122°13'1 1.0
2017-Nov-15 20:30N 47°41' W 122°13'2 4.7
2017-Nov-15 20:00N 47°43' W 122°15'0 0.4
2017-Nov-15 19:30N 47°42' W 122°15'0 0.5
2017-Nov-15 19:00N 47°42' W 122°15'0 0.3
2017-Nov-15 18:30N 47°42' W 122°15'2 4.1
2017-Nov-15 18:00N 47°40' W 122°15'3 5.2
2017-Nov-15 17:30N 47°39' W 122°18'1 0.7
2017-Nov-15 16:40N 47°39' W 122°19'0 0.0
2017-Nov-15 16:27N 47°39' W 122°19'0 0.0
2017-Nov-15 15:40N 47°39' W 122°19'0 0.0
2017-Nov-15 15:09N 47°39' W 122°19'0 0.0
2017-Nov-15 14:39N 47°39' W 122°19'0 0.0
2017-Nov-15 14:24N 47°39' W 122°19'0 0.0
2017-Nov-15 13:57N 47°39' W 122°19'0 0.0
2017-Nov-15 13:27N 47°39' W 122°19'0 0.0
2017-Nov-15 13:00N 47°39' W 122°19'0 0.0
2017-Nov-15 12:30N 47°39' W 122°19'0 0.0
2017-Nov-15 11:57N 47°39' W 122°19'0 0.0
2017-Nov-15 11:30N 47°39' W 122°19'0 0.0
2017-Nov-15 10:57N 47°39' W 122°19'0 0.0
2017-Nov-15 10:30N 47°39' W 122°19'0 0.0
2017-Nov-15 10:00N 47°39' W 122°19'0 0.0
2017-Nov-15 09:30N 47°39' W 122°19'0 0.0
2017-Nov-15 09:00N 47°39' W 122°19'0 0.0
2017-Nov-15 08:30N 47°39' W 122°19'0 0.0
2017-Nov-15 08:00N 47°39' W 122°19'0 0.0
2017-Nov-15 07:30N 47°39' W 122°19'0 0.0
2017-Nov-15 03:27N 47°39' W 122°19'0 0.0
2017-Nov-15 02:54N 47°39' W 122°19'0 0.0
2017-Nov-15 02:24N 47°39' W 122°19'0 0.0
2017-Nov-15 01:57N 47°39' W 122°19'0 0.0
2017-Nov-15 01:30N 47°39' W 122°19'0 0.0
2017-Nov-15 01:00N 47°39' W 122°19'0 0.0
2017-Nov-15 00:30N 47°39' W 122°19'1 1.1
2017-Nov-15 00:00N 47°39' W 122°18'3 5.8
2017-Nov-14 23:30N 47°40' W 122°14'1 2.2
2017-Nov-14 23:00N 47°41' W 122°13'0 0.5
2017-Nov-14 22:30N 47°41' W 122°13'0 0.8
2017-Nov-14 22:00N 47°41' W 122°14'0 0.7
2017-Nov-14 21:30N 47°41' W 122°13'1 2.1
2017-Nov-14 21:00N 47°40' W 122°13'0 0.0
2017-Nov-14 20:30N 47°40' W 122°13'1 1.1
2017-Nov-14 20:00N 47°41' W 122°13'1 1.2
2017-Nov-14 19:30N 47°41' W 122°13'0 0.5
2017-Nov-14 19:00N 47°42' W 122°14'0 0.2
2017-Nov-14 18:30N 47°42' W 122°14'1 2.2
2017-Nov-14 18:00N 47°41' W 122°14'3 5.5
2017-Nov-14 17:30N 47°39' W 122°17'1 2.2
2017-Nov-14 17:00N 47°39' W 122°19'0 0.0
2017-Nov-13 23:33N 47°39' W 122°19'0 2.5
2017-Nov-13 23:30N 47°39' W 122°19'3 6.1
2017-Nov-13 23:00N 47°40' W 122°14'1 2.0
2017-Nov-13 22:30N 47°41' W 122°14'0 0.7
2017-Nov-13 22:01N 47°41' W 122°14'4 0.2
2017-Nov-13 02:01N 47°39' W 122°19'0 0.0
2017-Nov-13 01:27N 47°39' W 122°19'0 0.0
2017-Nov-13 01:00N 47°39' W 122°19'0 0.0
2017-Nov-13 00:28N 47°39' W 122°19'0 0.0
2017-Nov-12 23:59N 47°39' W 122°19'0 0.0
2017-Nov-12 23:29N 47°39' W 122°19'0 0.0
2017-Nov-12 22:59N 47°39' W 122°19'0 0.0
2017-Nov-12 22:30N 47°39' W 122°19'0 0.1
2017-Nov-12 21:59N 47°39' W 122°19'0 0.0
2017-Nov-12 21:09N 47°39' W 122°19'0 0.0
2017-Nov-12 20:57N 47°39' W 122°19'0 0.0
2017-Nov-12 20:27N 47°39' W 122°19'0 0.0
2017-Nov-12 19:56N 47°39' W 122°19'0 0.0
2017-Nov-12 19:24N 47°39' W 122°19'0 0.0
2017-Nov-12 18:59N 47°39' W 122°19'0 0.0
2017-Nov-12 18:29N 47°39' W 122°19'0 0.0
2017-Nov-12 17:59N 47°39' W 122°19'0 0.0
2017-Nov-12 17:22N 47°39' W 122°19'0 0.0
2017-Nov-12 17:00N 47°39' W 122°19'0 0.0
2017-Nov-12 16:30N 47°39' W 122°19'0 0.0
2017-Nov-12 16:00N 47°39' W 122°19'0 0.0
2017-Nov-12 15:28N 47°39' W 122°19'0 0.0
2017-Nov-12 15:00N 47°39' W 122°19'0 0.0
2017-Nov-12 14:30N 47°39' W 122°19'0 0.0
2017-Nov-12 14:00N 47°39' W 122°19'0 0.0
2017-Nov-12 13:30N 47°39' W 122°19'0 0.0
2017-Nov-12 13:00N 47°39' W 122°19'0 0.0
2017-Nov-12 12:30N 47°39' W 122°19'0 0.0
2017-Nov-12 12:00N 47°39' W 122°19'0 0.0
2017-Nov-12 11:30N 47°39' W 122°19'0 0.0
2017-Nov-12 11:00N 47°39' W 122°19'0 0.0
2017-Nov-12 10:30N 47°39' W 122°19'0 0.0
2017-Nov-12 10:00N 47°39' W 122°19'0 0.0
2017-Nov-12 09:30N 47°39' W 122°19'0 0.0
2017-Nov-12 09:00N 47°39' W 122°19'0 0.0
2017-Nov-12 08:25N 47°39' W 122°19'0 0.0
2017-Nov-12 06:54N 47°39' W 122°19'0 0.0
2017-Nov-12 06:26N 47°39' W 122°19'0 0.0
2017-Nov-12 05:59N 47°39' W 122°19'0 0.0
2017-Nov-12 05:29N 47°39' W 122°19'0 0.0
2017-Nov-12 04:59N 47°39' W 122°19'0 0.0
2017-Nov-12 04:30N 47°39' W 122°19'0 0.0
2017-Nov-12 03:57N 47°39' W 122°19'0 0.0
2017-Nov-12 03:29N 47°39' W 122°19'0 0.0
2017-Nov-12 02:55N 47°39' W 122°19'0 0.0
2017-Nov-12 02:30N 47°39' W 122°19'0 0.0
2017-Nov-12 01:45N 47°39' W 122°19'0 0.0
2017-Nov-12 00:47N 47°39' W 122°19'0 0.0
2017-Nov-12 00:23N 47°39' W 122°19'0 0.0
2017-Nov-12 00:00N 47°39' W 122°19'0 0.0
2017-Nov-11 23:30N 47°39' W 122°19'0 0.0
2017-Nov-11 23:00N 47°39' W 122°19'0 0.0
2017-Nov-11 22:29N 47°39' W 122°19'0 0.0
2017-Nov-11 22:00N 47°39' W 122°19'0 0.0
2017-Nov-11 21:30N 47°39' W 122°19'0 0.0
2017-Nov-11 21:00N 47°39' W 122°19'0 0.0
2017-Nov-11 20:29N 47°39' W 122°19'0 0.0
2017-Nov-11 19:57N 47°39' W 122°19'0 0.0
2017-Nov-11 19:30N 47°39' W 122°19'0 0.0
2017-Nov-11 18:49N 47°39' W 122°19'0 0.0
2017-Nov-11 18:30N 47°39' W 122°19'0 0.0
2017-Nov-11 18:00N 47°39' W 122°19'0 0.0
2017-Nov-11 17:30N 47°39' W 122°19'0 0.0
2017-Nov-11 17:00N 47°39' W 122°19'0 0.0
2017-Nov-11 16:20N 47°39' W 122°19'0 0.0
2017-Nov-11 15:49N 47°39' W 122°19'0 0.0
2017-Nov-11 15:13N 47°39' W 122°19'0 0.0
2017-Nov-11 14:49N 47°39' W 122°19'0 0.0
2017-Nov-11 14:30N 47°39' W 122°19'0 0.0
2017-Nov-11 14:00N 47°39' W 122°19'0 0.0
2017-Nov-11 13:30N 47°39' W 122°19'0 0.0
2017-Nov-11 13:00N 47°39' W 122°19'0 0.0
2017-Nov-11 12:30N 47°39' W 122°19'0 0.0
2017-Nov-11 12:00N 47°39' W 122°19'0 0.0
2017-Nov-11 11:30N 47°39' W 122°19'0 0.0
2017-Nov-11 11:00N 47°39' W 122°19'0 0.0
2017-Nov-11 10:30N 47°39' W 122°19'0 0.0
2017-Nov-11 10:00N 47°39' W 122°19'0 0.1
2017-Nov-11 09:30N 47°39' W 122°19'0 0.1
2017-Nov-11 09:00N 47°39' W 122°19'0 0.0
2017-Nov-11 08:30N 47°39' W 122°19'0 0.0
2017-Nov-11 08:00N 47°39' W 122°19'0 0.0
2017-Nov-11 07:30N 47°39' W 122°19'0 0.0
2017-Nov-11 07:00N 47°39' W 122°19'0 0.0
2017-Nov-11 06:28N 47°39' W 122°19'0 0.0
2017-Nov-11 05:45N 47°39' W 122°19'0 0.0
2017-Nov-11 05:22N 47°39' W 122°19'0 0.0
2017-Nov-11 04:18N 47°39' W 122°19'0 0.0
2017-Nov-11 03:56N 47°39' W 122°19'0 0.0
2017-Nov-11 03:26N 47°39' W 122°19'0 0.0
2017-Nov-11 02:56N 47°39' W 122°19'0 0.0
2017-Nov-11 02:22N 47°39' W 122°19'1 0.0
2017-Nov-09 21:25N 47°39' W 122°20'4 3.6
2017-Nov-09 20:22N 47°41' W 122°25'3 7.9
2017-Nov-09 20:00N 47°43' W 122°25'4 8.0
2017-Nov-09 19:30N 47°47' W 122°25'4 7.8
2017-Nov-09 19:00N 47°51' W 122°27'3 6.9
2017-Nov-09 18:30N 47°54' W 122°29'23 7.9
2017-Nov-09 15:35N 48°10' W 122°54'2 9.1
2017-Nov-09 15:20N 48°11' W 122°57'3 8.6
2017-Nov-09 14:59N 48°11' W 123°02'510.3
2017-Nov-09 14:29N 48°11' W 123°10'511.2
2017-Nov-09 14:00N 48°09' W 123°17'510.0
2017-Nov-09 13:30N 48°08' W 123°24'2 3.7
2017-Nov-09 12:59N 48°08' W 123°27'0 0.0
2017-Nov-09 12:28N 48°08' W 123°27'0 0.0
2017-Nov-09 12:00N 48°08' W 123°27'0 0.0
2017-Nov-09 11:01N 48°08' W 123°27'0 0.0
2017-Nov-09 10:57N 48°08' W 123°27'0 0.0
2017-Nov-09 09:01N 48°08' W 123°27'0 0.0
2017-Nov-09 08:59N 48°08' W 123°27'0 0.0
2017-Nov-09 08:26N 48°08' W 123°27'0 0.0
2017-Nov-09 07:55N 48°08' W 123°27'0 0.0
2017-Nov-09 07:28N 48°08' W 123°27'0 0.0
2017-Nov-09 06:59N 48°08' W 123°27'0 0.0
2017-Nov-09 06:30N 48°08' W 123°27'0 0.0
2017-Nov-09 06:00N 48°08' W 123°27'0 0.0
2017-Nov-09 05:30N 48°08' W 123°27'0 0.0
2017-Nov-09 05:00N 48°08' W 123°27'0 0.0
2017-Nov-09 04:30N 48°08' W 123°27'0 0.0
2017-Nov-09 03:59N 48°08' W 123°27'0 0.0
2017-Nov-09 03:30N 48°08' W 123°27'0 0.0
2017-Nov-09 02:59N 48°08' W 123°27'0 0.0
2017-Nov-09 02:30N 48°08' W 123°27'0 0.0
2017-Nov-09 01:59N 48°08' W 123°27'0 0.0
2017-Nov-09 01:30N 48°08' W 123°27'0 0.0
2017-Nov-09 01:00N 48°08' W 123°27'0 0.0
2017-Nov-09 00:30N 48°08' W 123°27'0 0.0
2017-Nov-09 00:00N 48°08' W 123°27'0 0.0
2017-Nov-08 23:30N 48°08' W 123°27'0 0.0
2017-Nov-08 23:00N 48°08' W 123°27'0 0.0
2017-Nov-08 22:30N 48°08' W 123°27'0 0.0
2017-Nov-08 22:00N 48°08' W 123°27'0 0.0
2017-Nov-08 21:30N 48°08' W 123°27'0 0.0
2017-Nov-08 21:00N 48°08' W 123°27'0 0.0
2017-Nov-08 20:30N 48°08' W 123°27'0 0.0
2017-Nov-08 20:00N 48°08' W 123°27'0 0.0
2017-Nov-08 19:27N 48°08' W 123°27'0 0.0
2017-Nov-08 19:00N 48°08' W 123°27'0 0.0
2017-Nov-08 18:30N 48°08' W 123°27'0 0.0
2017-Nov-08 18:00N 48°08' W 123°27'0 0.0
2017-Nov-08 17:28N 48°08' W 123°27'0 0.0
2017-Nov-08 17:00N 48°08' W 123°27'0 0.0
2017-Nov-08 16:28N 48°08' W 123°27'0 0.0
2017-Nov-08 15:58N 48°08' W 123°27'0 0.0
2017-Nov-08 15:30N 48°08' W 123°27'0 0.0
2017-Nov-08 15:00N 48°08' W 123°27'0 0.0
2017-Nov-08 14:30N 48°08' W 123°27'0 0.0
2017-Nov-08 14:00N 48°08' W 123°27'0 0.0
2017-Nov-08 13:29N 48°08' W 123°27'0 0.0
2017-Nov-08 12:59N 48°08' W 123°27'0 0.0
2017-Nov-08 12:29N 48°08' W 123°27'0 0.0
2017-Nov-08 12:00N 48°08' W 123°27'0 0.0
2017-Nov-08 11:24N 48°08' W 123°27'0 0.0
2017-Nov-08 01:34N 48°08' W 123°27'0 0.0
2017-Nov-08 01:21N 48°08' W 123°27'0 0.0
2017-Nov-08 00:56N 48°08' W 123°27'0 0.0
2017-Nov-08 00:15N 48°08' W 123°27'0 0.0
2017-Nov-08 00:00N 48°08' W 123°27'0 0.0
2017-Nov-07 23:26N 48°08' W 123°27'0 0.0
2017-Nov-07 22:40N 48°08' W 123°27'0 0.0
2017-Nov-07 22:28N 48°08' W 123°27'2 4.6
2017-Nov-07 22:00N 48°08' W 123°24'4 7.4
2017-Nov-07 21:30N 48°09' W 123°30'3 6.4
2017-Nov-07 21:00N 48°09' W 123°34'2 3.7
2017-Nov-07 20:30N 48°09' W 123°37'2 3.7
2017-Nov-07 20:00N 48°09' W 123°34'2 3.0
2017-Nov-07 19:30N 48°09' W 123°32'2 4.9
2017-Nov-07 19:00N 48°08' W 123°29'1 2.3
2017-Nov-07 18:30N 48°09' W 123°30'1 3.0
2017-Nov-07 18:00N 48°09' W 123°32'2 2.9
2017-Nov-07 17:28N 48°09' W 123°34'2 3.6
2017-Nov-07 17:00N 48°09' W 123°37'1 2.1
2017-Nov-07 16:30N 48°09' W 123°35'4 7.6
2017-Nov-07 16:00N 48°09' W 123°30'4 7.1
2017-Nov-07 15:30N 48°08' W 123°25'2 0.1
2017-Nov-07 00:49N 48°08' W 123°27'2 5.8
2017-Nov-07 00:30N 48°08' W 123°24'  
Track history (hours):
 
Tides and Currents Weather Stations Pressure Air Temp Water Temp Dewpoint Dewpoint Depression Visibility Wind Speed Wind Dir Waves Ship Positions

Oceanographic research ship Clifford A. Barnes (USA)

Ship's website: http://www.ocean.washington.edu/vessels/CAB/cab.html

Detailed information on ship capabilities available from University of Delaware's Ocean Information Center.

Owner: UNIVERSITY OF WASHINGTON, SEATTLE, WA. More information available from US FCC via Universal Licensing System.

Last reported at 2017-Nov-17 00:16 UTC. Time now 2017-Dec-18 09:16 UTC.
Position N 47°39' W 122°19'.
Warning: this ship's position is 31 days out of date.

Length 22 m.

Type: Other ship. MMSI: 366918910.

Date/timePositionNaut miles runAvg speedWind from/ knotsBaromVisibWave heightAir tempDewpointWater temp
2017-Nov-17 00:16N 47°39' W 122°19'3 6.4
2017-Nov-16 23:45N 47°40' W 122°14'1 2.3
2017-Nov-16 23:26N 47°41' W 122°14'1 1.3
2017-Nov-16 22:59N 47°42' W 122°14'0 0.3
2017-Nov-16 22:21N 47°42' W 122°14'0 0.6
2017-Nov-16 22:00N 47°42' W 122°13'1 1.5
2017-Nov-16 21:30N 47°41' W 122°14'3 6.1
2017-Nov-16 20:59N 47°39' W 122°17'1 1.9
2017-Nov-16 20:30N 47°39' W 122°19'2 3.0
2017-Nov-16 20:01N 47°39' W 122°17'0 0.1
2017-Nov-16 19:31N 47°39' W 122°17'1 1.9
2017-Nov-16 19:00N 47°39' W 122°18'1 1.0
2017-Nov-16 18:28N 47°39' W 122°19'0 0.0
2017-Nov-16 17:58N 47°39' W 122°19'0 0.0
2017-Nov-16 16:10N 47°39' W 122°19'0 0.0
2017-Nov-16 15:58N 47°39' W 122°19'0 0.0
2017-Nov-16 15:19N 47°39' W 122°19'0 0.0
2017-Nov-16 14:58N 47°39' W 122°19'0 0.0
2017-Nov-16 00:08N 47°39' W 122°19'0 2.7
2017-Nov-16 00:00N 47°39' W 122°18'3 6.0
2017-Nov-15 23:31N 47°40' W 122°14'3 6.4
2017-Nov-15 23:00N 47°43' W 122°16'1 1.0
2017-Nov-15 22:30N 47°43' W 122°16'0 0.9
2017-Nov-15 22:00N 47°42' W 122°15'0 0.6
2017-Nov-15 21:30N 47°42' W 122°15'2 4.6
2017-Nov-15 21:00N 47°40' W 122°13'1 1.0
2017-Nov-15 20:30N 47°41' W 122°13'2 4.7
2017-Nov-15 20:00N 47°43' W 122°15'0 0.4
2017-Nov-15 19:30N 47°42' W 122°15'0 0.5
2017-Nov-15 19:00N 47°42' W 122°15'0 0.3
2017-Nov-15 18:30N 47°42' W 122°15'2 4.1
2017-Nov-15 18:00N 47°40' W 122°15'3 5.2
2017-Nov-15 17:30N 47°39' W 122°18'1 0.7
2017-Nov-15 16:40N 47°39' W 122°19'0 0.0
2017-Nov-15 16:27N 47°39' W 122°19'0 0.0
2017-Nov-15 15:40N 47°39' W 122°19'0 0.0
2017-Nov-15 15:09N 47°39' W 122°19'0 0.0
2017-Nov-15 14:39N 47°39' W 122°19'0 0.0
2017-Nov-15 14:24N 47°39' W 122°19'0 0.0
2017-Nov-15 13:57N 47°39' W 122°19'0 0.0
2017-Nov-15 13:27N 47°39' W 122°19'0 0.0
2017-Nov-15 13:00N 47°39' W 122°19'0 0.0
2017-Nov-15 12:30N 47°39' W 122°19'0 0.0
2017-Nov-15 11:57N 47°39' W 122°19'0 0.0
2017-Nov-15 11:30N 47°39' W 122°19'0 0.0
2017-Nov-15 10:57N 47°39' W 122°19'0 0.0
2017-Nov-15 10:30N 47°39' W 122°19'0 0.0
2017-Nov-15 10:00N 47°39' W 122°19'0 0.0
2017-Nov-15 09:30N 47°39' W 122°19'0 0.0
2017-Nov-15 09:00N 47°39' W 122°19'0 0.0
2017-Nov-15 08:30N 47°39' W 122°19'0 0.0
2017-Nov-15 08:00N 47°39' W 122°19'0 0.0
2017-Nov-15 07:30N 47°39' W 122°19'0 0.0
2017-Nov-15 03:27N 47°39' W 122°19'0 0.0
2017-Nov-15 02:54N 47°39' W 122°19'0 0.0
2017-Nov-15 02:24N 47°39' W 122°19'0 0.0
2017-Nov-15 01:57N 47°39' W 122°19'0 0.0
2017-Nov-15 01:30N 47°39' W 122°19'0 0.0
2017-Nov-15 01:00N 47°39' W 122°19'0 0.0
2017-Nov-15 00:30N 47°39' W 122°19'1 1.1
2017-Nov-15 00:00N 47°39' W 122°18'3 5.8
2017-Nov-14 23:30N 47°40' W 122°14'1 2.2
2017-Nov-14 23:00N 47°41' W 122°13'0 0.5
2017-Nov-14 22:30N 47°41' W 122°13'0 0.8
2017-Nov-14 22:00N 47°41' W 122°14'0 0.7
2017-Nov-14 21:30N 47°41' W 122°13'1 2.1
2017-Nov-14 21:00N 47°40' W 122°13'0 0.0
2017-Nov-14 20:30N 47°40' W 122°13'1 1.1
2017-Nov-14 20:00N 47°41' W 122°13'1 1.2
2017-Nov-14 19:30N 47°41' W 122°13'0 0.5
2017-Nov-14 19:00N 47°42' W 122°14'0 0.2
2017-Nov-14 18:30N 47°42' W 122°14'1 2.2
2017-Nov-14 18:00N 47°41' W 122°14'3 5.5
2017-Nov-14 17:30N 47°39' W 122°17'1 2.2
2017-Nov-14 17:00N 47°39' W 122°19'0 0.0
2017-Nov-13 23:33N 47°39' W 122°19'0 2.5
2017-Nov-13 23:30N 47°39' W 122°19'3 6.1
2017-Nov-13 23:00N 47°40' W 122°14'1 2.0
2017-Nov-13 22:30N 47°41' W 122°14'0 0.7
2017-Nov-13 22:01N 47°41' W 122°14'4 0.2
2017-Nov-13 02:01N 47°39' W 122°19'0 0.0
2017-Nov-13 01:27N 47°39' W 122°19'0 0.0
2017-Nov-13 01:00N 47°39' W 122°19'0 0.0
2017-Nov-13 00:28N 47°39' W 122°19'0 0.0
2017-Nov-12 23:59N 47°39' W 122°19'0 0.0
2017-Nov-12 23:29N 47°39' W 122°19'0 0.0
2017-Nov-12 22:59N 47°39' W 122°19'0 0.0
2017-Nov-12 22:30N 47°39' W 122°19'0 0.1
2017-Nov-12 21:59N 47°39' W 122°19'0 0.0
2017-Nov-12 21:09N 47°39' W 122°19'0 0.0
2017-Nov-12 20:57N 47°39' W 122°19'0 0.0
2017-Nov-12 20:27N 47°39' W 122°19'0 0.0
2017-Nov-12 19:56N 47°39' W 122°19'0 0.0
2017-Nov-12 19:24N 47°39' W 122°19'0 0.0
2017-Nov-12 18:59N 47°39' W 122°19'0 0.0
2017-Nov-12 18:29N 47°39' W 122°19'0 0.0
2017-Nov-12 17:59N 47°39' W 122°19'0 0.0
2017-Nov-12 17:22N 47°39' W 122°19'0 0.0
2017-Nov-12 17:00N 47°39' W 122°19'0 0.0
2017-Nov-12 16:30N 47°39' W 122°19'0 0.0
2017-Nov-12 16:00N 47°39' W 122°19'0 0.0
2017-Nov-12 15:28N 47°39' W 122°19'0 0.0
2017-Nov-12 15:00N 47°39' W 122°19'0 0.0
2017-Nov-12 14:30N 47°39' W 122°19'0 0.0
2017-Nov-12 14:00N 47°39' W 122°19'0 0.0
2017-Nov-12 13:30N 47°39' W 122°19'0 0.0
2017-Nov-12 13:00N 47°39' W 122°19'0 0.0
2017-Nov-12 12:30N 47°39' W 122°19'0 0.0
2017-Nov-12 12:00N 47°39' W 122°19'0 0.0
2017-Nov-12 11:30N 47°39' W 122°19'0 0.0
2017-Nov-12 11:00N 47°39' W 122°19'0 0.0
2017-Nov-12 10:30N 47°39' W 122°19'0 0.0
2017-Nov-12 10:00N 47°39' W 122°19'0 0.0
2017-Nov-12 09:30N 47°39' W 122°19'0 0.0
2017-Nov-12 09:00N 47°39' W 122°19'0 0.0
2017-Nov-12 08:25N 47°39' W 122°19'0 0.0
2017-Nov-12 06:54N 47°39' W 122°19'0 0.0
2017-Nov-12 06:26N 47°39' W 122°19'0 0.0
2017-Nov-12 05:59N 47°39' W 122°19'0 0.0
2017-Nov-12 05:29N 47°39' W 122°19'0 0.0
2017-Nov-12 04:59N 47°39' W 122°19'0 0.0
2017-Nov-12 04:30N 47°39' W 122°19'0 0.0
2017-Nov-12 03:57N 47°39' W 122°19'0 0.0
2017-Nov-12 03:29N 47°39' W 122°19'0 0.0
2017-Nov-12 02:55N 47°39' W 122°19'0 0.0
2017-Nov-12 02:30N 47°39' W 122°19'0 0.0
2017-Nov-12 01:45N 47°39' W 122°19'0 0.0
2017-Nov-12 00:47N 47°39' W 122°19'0 0.0
2017-Nov-12 00:23N 47°39' W 122°19'0 0.0
2017-Nov-12 00:00N 47°39' W 122°19'0 0.0
2017-Nov-11 23:30N 47°39' W 122°19'0 0.0
2017-Nov-11 23:00N 47°39' W 122°19'0 0.0
2017-Nov-11 22:29N 47°39' W 122°19'0 0.0
2017-Nov-11 22:00N 47°39' W 122°19'0 0.0
2017-Nov-11 21:30N 47°39' W 122°19'0 0.0
2017-Nov-11 21:00N 47°39' W 122°19'0 0.0
2017-Nov-11 20:29N 47°39' W 122°19'0 0.0
2017-Nov-11 19:57N 47°39' W 122°19'0 0.0
2017-Nov-11 19:30N 47°39' W 122°19'0 0.0
2017-Nov-11 18:49N 47°39' W 122°19'0 0.0
2017-Nov-11 18:30N 47°39' W 122°19'0 0.0
2017-Nov-11 18:00N 47°39' W 122°19'0 0.0
2017-Nov-11 17:30N 47°39' W 122°19'0 0.0
2017-Nov-11 17:00N 47°39' W 122°19'0 0.0
2017-Nov-11 16:20N 47°39' W 122°19'0 0.0
2017-Nov-11 15:49N 47°39' W 122°19'0 0.0
2017-Nov-11 15:13N 47°39' W 122°19'0 0.0
2017-Nov-11 14:49N 47°39' W 122°19'0 0.0
2017-Nov-11 14:30N 47°39' W 122°19'0 0.0
2017-Nov-11 14:00N 47°39' W 122°19'0 0.0
2017-Nov-11 13:30N 47°39' W 122°19'0 0.0
2017-Nov-11 13:00N 47°39' W 122°19'0 0.0
2017-Nov-11 12:30N 47°39' W 122°19'0 0.0
2017-Nov-11 12:00N 47°39' W 122°19'0 0.0
2017-Nov-11 11:30N 47°39' W 122°19'0 0.0
2017-Nov-11 11:00N 47°39' W 122°19'0 0.0
2017-Nov-11 10:30N 47°39' W 122°19'0 0.0
2017-Nov-11 10:00N 47°39' W 122°19'0 0.1
2017-Nov-11 09:30N 47°39' W 122°19'0 0.1
2017-Nov-11 09:00N 47°39' W 122°19'0 0.0
2017-Nov-11 08:30N 47°39' W 122°19'0 0.0
2017-Nov-11 08:00N 47°39' W 122°19'0 0.0
2017-Nov-11 07:30N 47°39' W 122°19'0 0.0
2017-Nov-11 07:00N 47°39' W 122°19'0 0.0
2017-Nov-11 06:28N 47°39' W 122°19'0 0.0
2017-Nov-11 05:45N 47°39' W 122°19'0 0.0
2017-Nov-11 05:22N 47°39' W 122°19'0 0.0
2017-Nov-11 04:18N 47°39' W 122°19'0 0.0
2017-Nov-11 03:56N 47°39' W 122°19'0 0.0
2017-Nov-11 03:26N 47°39' W 122°19'0 0.0
2017-Nov-11 02:56N 47°39' W 122°19'0 0.0
2017-Nov-11 02:22N 47°39' W 122°19'1 0.0
2017-Nov-09 21:25N 47°39' W 122°20'4 3.6
2017-Nov-09 20:22N 47°41' W 122°25'3 7.9
2017-Nov-09 20:00N 47°43' W 122°25'4 8.0
2017-Nov-09 19:30N 47°47' W 122°25'4 7.8
2017-Nov-09 19:00N 47°51' W 122°27'3 6.9
2017-Nov-09 18:30N 47°54' W 122°29'23 7.9
2017-Nov-09 15:35N 48°10' W 122°54'2 9.1
2017-Nov-09 15:20N 48°11' W 122°57'3 8.6
2017-Nov-09 14:59N 48°11' W 123°02'510.3
2017-Nov-09 14:29N 48°11' W 123°10'511.2
2017-Nov-09 14:00N 48°09' W 123°17'510.0
2017-Nov-09 13:30N 48°08' W 123°24'2 3.7
2017-Nov-09 12:59N 48°08' W 123°27'0 0.0
2017-Nov-09 12:28N 48°08' W 123°27'0 0.0
2017-Nov-09 12:00N 48°08' W 123°27'0 0.0
2017-Nov-09 11:01N 48°08' W 123°27'0 0.0
2017-Nov-09 10:57N 48°08' W 123°27'0 0.0
2017-Nov-09 09:01N 48°08' W 123°27'0 0.0
2017-Nov-09 08:59N 48°08' W 123°27'0 0.0
2017-Nov-09 08:26N 48°08' W 123°27'0 0.0
2017-Nov-09 07:55N 48°08' W 123°27'0 0.0
2017-Nov-09 07:28N 48°08' W 123°27'0 0.0
2017-Nov-09 06:59N 48°08' W 123°27'0 0.0
2017-Nov-09 06:30N 48°08' W 123°27'0 0.0
2017-Nov-09 06:00N 48°08' W 123°27'0 0.0
2017-Nov-09 05:30N 48°08' W 123°27'0 0.0
2017-Nov-09 05:00N 48°08' W 123°27'0 0.0
2017-Nov-09 04:30N 48°08' W 123°27'0 0.0
2017-Nov-09 03:59N 48°08' W 123°27'0 0.0
2017-Nov-09 03:30N 48°08' W 123°27'0 0.0
2017-Nov-09 02:59N 48°08' W 123°27'0 0.0
2017-Nov-09 02:30N 48°08' W 123°27'0 0.0
2017-Nov-09 01:59N 48°08' W 123°27'0 0.0
2017-Nov-09 01:30N 48°08' W 123°27'0 0.0
2017-Nov-09 01:00N 48°08' W 123°27'0 0.0
2017-Nov-09 00:30N 48°08' W 123°27'0 0.0
2017-Nov-09 00:00N 48°08' W 123°27'0 0.0
2017-Nov-08 23:30N 48°08' W 123°27'0 0.0
2017-Nov-08 23:00N 48°08' W 123°27'0 0.0
2017-Nov-08 22:30N 48°08' W 123°27'0 0.0
2017-Nov-08 22:00N 48°08' W 123°27'0 0.0
2017-Nov-08 21:30N 48°08' W 123°27'0 0.0
2017-Nov-08 21:00N 48°08' W 123°27'0 0.0
2017-Nov-08 20:30N 48°08' W 123°27'0 0.0
2017-Nov-08 20:00N 48°08' W 123°27'0 0.0
2017-Nov-08 19:27N 48°08' W 123°27'0 0.0
2017-Nov-08 19:00N 48°08' W 123°27'0 0.0
2017-Nov-08 18:30N 48°08' W 123°27'0 0.0
2017-Nov-08 18:00N 48°08' W 123°27'0 0.0
2017-Nov-08 17:28N 48°08' W 123°27'0 0.0
2017-Nov-08 17:00N 48°08' W 123°27'0 0.0
2017-Nov-08 16:28N 48°08' W 123°27'0 0.0
2017-Nov-08 15:58N 48°08' W 123°27'0 0.0
2017-Nov-08 15:30N 48°08' W 123°27'0 0.0
2017-Nov-08 15:00N 48°08' W 123°27'0 0.0
2017-Nov-08 14:30N 48°08' W 123°27'0 0.0
2017-Nov-08 14:00N 48°08' W 123°27'0 0.0
2017-Nov-08 13:29N 48°08' W 123°27'0 0.0
2017-Nov-08 12:59N 48°08' W 123°27'0 0.0
2017-Nov-08 12:29N 48°08' W 123°27'0 0.0
2017-Nov-08 12:00N 48°08' W 123°27'0 0.0
2017-Nov-08 11:24N 48°08' W 123°27'0 0.0
2017-Nov-08 01:34N 48°08' W 123°27'0 0.0
2017-Nov-08 01:21N 48°08' W 123°27'0 0.0
2017-Nov-08 00:56N 48°08' W 123°27'0 0.0
2017-Nov-08 00:15N 48°08' W 123°27'0 0.0
2017-Nov-08 00:00N 48°08' W 123°27'0 0.0
2017-Nov-07 23:26N 48°08' W 123°27'0 0.0
2017-Nov-07 22:40N 48°08' W 123°27'0 0.0
2017-Nov-07 22:28N 48°08' W 123°27'2 4.6
2017-Nov-07 22:00N 48°08' W 123°24'4 7.4
2017-Nov-07 21:30N 48°09' W 123°30'3 6.4
2017-Nov-07 21:00N 48°09' W 123°34'2 3.7
2017-Nov-07 20:30N 48°09' W 123°37'2 3.7
2017-Nov-07 20:00N 48°09' W 123°34'2 3.0
2017-Nov-07 19:30N 48°09' W 123°32'2 4.9
2017-Nov-07 19:00N 48°08' W 123°29'1 2.3
2017-Nov-07 18:30N 48°09' W 123°30'1 3.0
2017-Nov-07 18:00N 48°09' W 123°32'2 2.9
2017-Nov-07 17:28N 48°09' W 123°34'2 3.6
2017-Nov-07 17:00N 48°09' W 123°37'1 2.1
2017-Nov-07 16:30N 48°09' W 123°35'4 7.6
2017-Nov-07 16:00N 48°09' W 123°30'4 7.1
2017-Nov-07 15:30N 48°08' W 123°25'2 0.1
2017-Nov-07 00:49N 48°08' W 123°27'2 5.8
2017-Nov-07 00:30N 48°08' W 123°24'  

Dump ship's entire track history